Time;durP1;ratioP1;P1;durP2;ratioP2;P2;SDS_P1;SDS_P2;PMS_P1;PMS_P2;Temp;Humidity;BMP_temperature;BMP_pressure;BME280_temperature;BME280_humidity;BME280_pressure;Samples;Min_cycle;Max_cycle;Signal;HPM_P1;HPM_P2
2022/05/01 00:00:16;;;;;;;36.95;23.63;;;10.30;99.90;;;;;;4888378;29;20041;-79
2022/05/01 05:01:41;;;;;;;42.05;24.70;;;9.80;99.90;;;;;;5847060;23;20020;-79
2022/05/01 05:04:07;;;;;;;42.50;25.02;;;9.90;99.90;;;;;;4928024;29;20114;-78
2022/05/01 05:06:33;;;;;;;41.63;24.20;;;9.90;99.90;;;;;;4932904;29;20036;-78
2022/05/01 05:11:45;;;;;;;42.38;24.33;;;9.90;99.90;;;;;;4943227;29;20035;-79
2022/05/01 05:14:17;;;;;;;41.05;25.00;;;10.00;99.90;;;;;;4927991;29;20067;-80
2022/05/01 05:16:43;;;;;;;41.20;25.23;;;10.00;99.90;;;;;;4943522;29;20035;-79
2022/05/01 05:19:09;;;;;;;43.13;24.65;;;10.00;99.90;;;;;;4934919;29;20047;-78
2022/05/01 05:21:35;;;;;;;40.40;24.35;;;9.90;99.90;;;;;;4908763;29;20020;-78
2022/05/01 05:24:01;;;;;;;38.70;23.30;;;9.90;99.90;;;;;;4925845;29;20032;-77
2022/05/01 05:26:27;;;;;;;39.20;23.75;;;9.90;99.90;;;;;;4924365;29;20028;-78
2022/05/01 05:28:52;;;;;;;40.55;23.17;;;9.90;99.90;;;;;;4943819;29;20186;-79
2022/05/01 05:31:18;;;;;;;35.22;22.17;;;10.00;99.90;;;;;;4944222;29;20071;-78
2022/05/01 05:33:47;;;;;;;38.05;22.55;;;10.00;99.90;;;;;;4943608;29;20023;-81
2022/05/01 05:36:38;;;;;;;38.65;23.35;;;10.10;99.90;;;;;;4944480;29;20054;-78
2022/05/01 05:39:04;;;;;;;36.95;22.52;;;10.20;99.90;;;;;;4928086;29;20082;-78
2022/05/01 05:41:30;;;;;;;37.85;22.67;;;10.20;99.90;;;;;;4927453;29;20024;-80
2022/05/01 05:43:56;;;;;;;39.30;23.70;;;10.20;99.90;;;;;;4944835;29;20031;-77
2022/05/01 05:46:22;;;;;;;34.85;20.98;;;10.20;99.90;;;;;;4943047;29;20063;-78
2022/05/01 05:48:48;;;;;;;38.00;23.13;;;10.30;99.90;;;;;;4944142;29;20038;-79
2022/05/01 05:51:14;;;;;;;34.88;21.40;;;10.30;99.90;;;;;;4952646;29;20113;-76
2022/05/01 05:53:40;;;;;;;34.35;21.60;;;10.40;99.90;;;;;;4952254;29;20047;-78
2022/05/01 05:56:06;;;;;;;37.72;23.20;;;10.40;99.90;;;;;;4934312;29;20086;-78
2022/05/01 05:58:31;;;;;;;35.22;21.38;;;10.40;99.90;;;;;;4932293;29;20019;-77
2022/05/01 06:00:58;;;;;;;36.60;22.33;;;10.40;99.90;;;;;;4947816;29;20047;-77
2022/05/01 06:03:29;;;;;;;32.33;21.48;;;10.40;99.90;;;;;;4926148;29;20059;-79
2022/05/01 06:05:54;;;;;;;35.47;21.60;;;10.40;99.90;;;;;;4896298;29;20028;-78
2022/05/01 06:08:20;;;;;;;35.83;21.55;;;10.40;99.90;;;;;;4909990;29;20116;-77
2022/05/01 06:10:46;;;;;;;34.65;22.65;;;10.50;99.90;;;;;;4909795;29;20036;-76
2022/05/01 06:13:12;;;;;;;37.65;22.35;;;10.60;99.90;;;;;;4910339;29;20036;-79
2022/05/01 06:15:43;;;;;;;34.70;21.52;;;10.60;99.90;;;;;;4908549;29;20044;-79
2022/05/01 06:18:12;;;;;;;30.73;20.05;;;10.60;99.90;;;;;;4893602;29;20032;-80
2022/05/01 06:20:40;;;;;;;31.73;21.45;;;10.70;99.90;;;;;;4909547;29;20326;-79
2022/05/01 06:23:06;;;;;;;33.35;21.08;;;10.90;99.90;;;;;;4909392;29;20225;-80
2022/05/01 06:25:35;;;;;;;32.65;21.73;;;10.90;99.90;;;;;;4909552;29;20226;-78
2022/05/01 06:28:01;;;;;;;32.22;20.15;;;11.00;99.90;;;;;;4905636;29;20060;-78
2022/05/01 06:30:27;;;;;;;30.52;19.08;;;11.10;99.90;;;;;;4928356;29;20099;-79
2022/05/01 06:32:56;;;;;;;30.42;19.88;;;11.30;99.90;;;;;;4911563;29;20024;-80
2022/05/01 06:35:31;;;;;;;31.35;20.02;;;11.40;99.90;;;;;;4927525;29;20373;-80
2022/05/01 06:37:58;;;;;;;31.23;19.25;;;11.60;99.90;;;;;;4927574;29;20039;-77
2022/05/01 06:40:24;;;;;;;28.75;18.70;;;11.70;99.90;;;;;;4911621;29;20031;-78
2022/05/01 06:43:17;;;;;;;30.23;20.88;;;11.90;99.90;;;;;;4911395;29;20047;-77
2022/05/01 06:45:43;;;;;;;27.17;18.13;;;11.90;99.90;;;;;;4918577;29;20042;-79
2022/05/01 06:48:10;;;;;;;30.52;18.67;;;12.10;99.90;;;;;;4928043;29;20217;-79
2022/05/01 06:50:37;;;;;;;27.02;18.75;;;12.20;99.90;;;;;;4928223;29;20311;-79
2022/05/01 06:53:04;;;;;;;28.27;17.77;;;12.40;99.90;;;;;;4928561;29;20160;-80
2022/05/01 06:55:38;;;;;;;29.52;19.42;;;12.60;99.60;;;;;;4927498;29;20055;-82
2022/05/01 06:58:04;;;;;;;27.40;17.98;;;12.60;98.70;;;;;;4927238;29;20317;-79
2022/05/01 07:00:31;;;;;;;27.33;17.67;;;12.60;98.90;;;;;;4926750;29;20040;-78
2022/05/01 07:02:57;;;;;;;26.10;18.38;;;12.70;98.90;;;;;;4927753;29;20226;-77
2022/05/01 07:05:23;;;;;;;29.40;19.95;;;12.70;98.60;;;;;;4911205;29;20031;-78
2022/05/01 07:07:50;;;;;;;29.17;18.58;;;12.60;98.50;;;;;;4910742;29;20060;-78
2022/05/01 07:10:17;;;;;;;29.35;18.88;;;12.70;98.30;;;;;;4911304;29;20071;-78
2022/05/01 07:12:43;;;;;;;27.00;18.42;;;12.90;98.10;;;;;;4927276;29;20028;-76
2022/05/01 07:15:09;;;;;;;26.67;18.48;;;13.10;97.70;;;;;;4926516;29;20035;-76
2022/05/01 07:17:35;;;;;;;25.10;15.77;;;13.20;97.40;;;;;;4924703;29;20024;-76
2022/05/01 07:20:02;;;;;;;29.10;18.08;;;13.30;97.20;;;;;;4918808;29;20052;-77
2022/05/01 07:22:29;;;;;;;24.08;17.00;;;13.50;96.70;;;;;;4897834;29;20091;-77
2022/05/01 07:24:55;;;;;;;25.83;16.88;;;13.50;96.80;;;;;;4891665;29;20074;-77
2022/05/01 07:27:30;;;;;;;25.08;18.15;;;13.50;96.50;;;;;;4899478;29;20032;-77
2022/05/01 07:29:55;;;;;;;24.85;17.48;;;13.50;96.50;;;;;;4923446;29;20063;-76
2022/05/01 07:32:21;;;;;;;25.08;16.42;;;13.60;96.20;;;;;;4928536;29;20055;-76
2022/05/01 07:34:47;;;;;;;20.92;14.15;;;13.60;96.00;;;;;;4926802;29;20052;-79
2022/05/01 07:37:24;;;;;;;21.85;15.38;;;13.80;95.70;;;;;;4926213;29;20095;-79
2022/05/01 07:40:15;;;;;;;21.85;16.00;;;13.90;95.30;;;;;;4926680;29;20047;-79
2022/05/01 07:42:41;;;;;;;22.20;16.42;;;14.00;95.20;;;;;;4925814;29;20016;-75
2022/05/01 07:45:08;;;;;;;26.05;16.65;;;13.90;95.30;;;;;;4925568;29;20085;-77
2022/05/01 07:47:35;;;;;;;24.77;16.70;;;13.90;95.20;;;;;;4926990;29;20036;-78
2022/05/01 07:50:01;;;;;;;23.45;16.65;;;13.80;95.20;;;;;;4910762;29;20036;-77
2022/05/01 07:52:27;;;;;;;24.45;16.98;;;13.90;95.10;;;;;;4897709;29;20032;-78
2022/05/01 07:54:55;;;;;;;22.83;16.15;;;13.90;95.10;;;;;;4907615;29;20288;-77
2022/05/01 07:57:26;;;;;;;22.20;15.93;;;14.00;94.90;;;;;;4908175;29;20110;-77
2022/05/01 07:59:53;;;;;;;22.17;15.63;;;14.20;94.20;;;;;;4906903;29;20068;-76
2022/05/01 08:02:18;;;;;;;21.83;15.65;;;14.20;94.30;;;;;;4890472;29;20045;-76
2022/05/01 08:04:44;;;;;;;21.40;15.43;;;14.50;94.00;;;;;;4923544;29;20046;-76
2022/05/01 08:07:10;;;;;;;22.35;15.43;;;14.60;93.60;;;;;;4937741;29;20054;-75
2022/05/01 08:09:39;;;;;;;21.55;15.55;;;14.60;93.40;;;;;;4936233;29;20043;-75
2022/05/01 08:12:06;;;;;;;25.42;16.65;;;14.70;93.40;;;;;;4930618;29;20072;-76
2022/05/01 08:14:33;;;;;;;21.52;15.20;;;14.90;93.20;;;;;;4910684;29;20035;-75
2022/05/01 08:16:59;;;;;;;22.20;15.55;;;14.90;93.00;;;;;;4908992;29;20116;-77
2022/05/01 08:22:09;;;;;;;23.08;15.27;;;15.20;92.90;;;;;;4925078;29;20329;-77
2022/05/01 08:24:35;;;;;;;22.45;15.98;;;15.40;92.10;;;;;;4925375;29;20043;-77
2022/05/01 08:27:07;;;;;;;23.27;16.00;;;15.50;91.90;;;;;;4924926;29;20051;-76
2022/05/01 08:29:34;;;;;;;23.20;16.67;;;15.50;92.00;;;;;;4906791;29;20027;-76
2022/05/01 08:32:00;;;;;;;22.50;16.15;;;15.50;91.90;;;;;;4905079;29;20042;-77
2022/05/01 08:34:27;;;;;;;20.08;14.98;;;15.80;91.70;;;;;;4890517;29;20028;-77
2022/05/01 08:36:53;;;;;;;19.77;14.55;;;16.10;91.20;;;;;;4914221;29;20050;-78
2022/05/01 08:39:19;;;;;;;20.15;14.48;;;16.20;90.70;;;;;;4926034;29;20063;-76
2022/05/01 08:41:45;;;;;;;17.80;13.25;;;16.40;90.50;;;;;;4924652;29;20107;-77
2022/05/01 08:44:14;;;;;;;19.48;14.43;;;16.50;90.30;;;;;;4909608;29;20023;-77
2022/05/01 08:47:18;;;;;;;18.30;14.43;;;16.50;89.70;;;;;;4874346;29;20055;-78
2022/05/01 08:49:44;;;;;;;19.10;14.43;;;16.70;88.20;;;;;;4890324;29;20107;-76
2022/05/01 08:52:12;;;;;;;18.55;13.23;;;16.60;88.80;;;;;;4896002;29;20032;-76
2022/05/01 08:54:38;;;;;;;16.50;12.23;;;16.90;88.50;;;;;;4906055;29;20039;-77
2022/05/01 08:57:05;;;;;;;17.48;13.38;;;17.20;88.10;;;;;;4901204;29;20249;-76
2022/05/01 08:59:31;;;;;;;18.05;13.93;;;17.20;87.10;;;;;;4906409;29;20028;-78
2022/05/01 09:01:58;;;;;;;19.15;14.65;;;17.10;86.40;;;;;;4904932;29;20071;-77
2022/05/01 09:04:26;;;;;;;19.15;13.60;;;17.00;85.40;;;;;;4922767;29;20063;-78
2022/05/01 09:06:52;;;;;;;18.90;13.93;;;17.00;85.30;;;;;;4905576;29;20037;-78
2022/05/01 09:09:20;;;;;;;17.02;13.57;;;16.80;84.90;;;;;;4896792;29;20076;-78
2022/05/01 09:14:58;;;;;;;16.88;12.68;;;16.80;85.50;;;;;;4906645;29;20039;-78
2022/05/01 09:17:25;;;;;;;17.27;13.40;;;16.80;85.20;;;;;;4904989;29;20041;-78
2022/05/01 09:20:04;;;;;;;16.98;12.07;;;16.40;84.70;;;;;;4906230;29;20055;-77
2022/05/01 09:22:50;;;;;;;16.15;11.73;;;16.30;85.70;;;;;;4890205;29;20067;-78
2022/05/01 09:25:30;;;;;;;21.10;12.80;;;16.20;86.40;;;;;;4891816;29;20238;-78
2022/05/01 09:27:57;;;;;;;14.23;11.70;;;16.50;85.30;;;;;;4908875;29;20028;-78
2022/05/01 09:30:45;;;;;;;;;;;;;;;;;;;;;
2022/05/01 09:37:34;;;;;;;16.23;11.40;;;17.20;82.30;;;;;;4904818;29;20039;-78
2022/05/01 09:40:13;;;;;;;15.80;10.48;;;16.90;82.90;;;;;;4882302;29;20231;-79
2022/05/01 09:46:54;;;;;;;12.80;10.40;;;17.50;81.20;;;;;;4744643;30;20054;-79
2022/05/01 09:53:41;;;;;;;14.68;10.98;;;18.40;78.70;;;;;;4831175;29;20439;-79
2022/05/01 09:56:13;;;;;;;13.57;10.55;;;18.90;78.00;;;;;;4817544;29;20060;-83
2022/05/01 09:58:44;;;;;;;13.82;10.93;;;19.00;76.40;;;;;;4815372;29;20308;-80
2022/05/01 10:01:19;;;;;;;13.20;10.70;;;19.00;77.40;;;;;;4830206;29;20080;-80
2022/05/01 10:03:46;;;;;;;14.75;11.25;;;19.10;77.40;;;;;;4829676;29;20079;-79
2022/05/01 10:06:14;;;;;;;13.48;9.75;;;18.90;77.70;;;;;;4812871;29;20244;-78
2022/05/01 10:08:42;;;;;;;14.55;10.85;;;19.20;77.40;;;;;;4830601;29;20062;-78
2022/05/01 10:11:10;;;;;;;15.02;11.55;;;19.50;77.00;;;;;;4818395;29;20054;-79
2022/05/01 10:13:36;;;;;;;15.93;12.02;;;19.60;76.20;;;;;;4830121;29;20124;-79
2022/05/01 10:16:15;;;;;;;14.93;10.30;;;19.90;76.00;;;;;;4814078;29;20058;-79
2022/05/01 10:18:47;;;;;;;13.23;9.93;;;20.10;75.40;;;;;;4826032;29;20064;-79
2022/05/01 10:21:13;;;;;;;11.02;9.30;;;19.90;72.50;;;;;;4801749;29;20369;-76
2022/05/01 10:23:40;;;;;;;13.40;10.15;;;19.80;73.20;;;;;;4827023;29;20037;-79
2022/05/01 10:26:14;;;;;;;14.77;10.02;;;19.90;73.10;;;;;;4921932;28;20072;-78
2022/05/01 10:29:03;;;;;;;12.13;9.80;;;19.50;74.10;;;;;;4930279;29;20042;-79
2022/05/01 10:32:21;;;;;;;12.35;9.85;;;19.60;76.20;;;;;;4924255;29;20048;-80
2022/05/01 10:35:24;;;;;;;12.45;9.98;;;19.60;75.00;;;;;;4909013;29;20335;-80
2022/05/01 10:38:28;;;;;;;12.98;9.57;;;19.60;74.10;;;;;;4927482;29;20105;-80
2022/05/01 10:40:55;;;;;;;14.68;8.73;;;19.60;74.70;;;;;;4923645;28;20234;-78
2022/05/01 10:43:29;;;;;;;11.82;10.07;;;19.60;73.40;;;;;;4928500;29;20064;-78
2022/05/01 10:46:02;;;;;;;12.45;9.50;;;19.60;73.30;;;;;;4927692;29;20040;-79
2022/05/01 10:48:52;;;;;;;11.27;8.80;;;19.90;73.60;;;;;;4928203;29;20055;-79
2022/05/01 10:51:31;;;;;;;11.80;9.20;;;19.90;73.60;;;;;;4938027;29;20052;-79
2022/05/01 10:54:14;;;;;;;9.88;7.75;;;20.20;71.80;;;;;;4926444;29;20039;-80
2022/05/01 10:56:54;;;;;;;10.20;8.38;;;20.40;73.40;;;;;;4928325;29;20052;-78
2022/05/01 10:59:29;;;;;;;13.23;8.82;;;20.80;71.10;;;;;;4928082;29;20214;-79
2022/05/01 11:02:03;;;;;;;12.73;8.65;;;21.00;70.10;;;;;;4926885;29;20036;-79
2022/05/01 11:04:32;;;;;;;11.65;9.43;;;21.40;69.30;;;;;;4927931;29;20055;-79
2022/05/01 11:06:59;;;;;;;10.48;8.73;;;21.70;67.50;;;;;;4923222;29;20070;-80
2022/05/01 11:09:26;;;;;;;12.10;8.75;;;21.40;67.60;;;;;;4908461;29;20033;-79
2022/05/01 11:11:54;;;;;;;11.98;9.07;;;21.70;68.00;;;;;;4920428;29;20076;-79
2022/05/01 11:14:40;;;;;;;10.43;8.68;;;21.40;67.30;;;;;;4927718;29;20334;-80
2022/05/01 11:17:08;;;;;;;12.32;9.02;;;20.60;69.30;;;;;;4926783;29;20111;-79
2022/05/01 11:19:50;;;;;;;10.70;8.30;;;20.60;69.60;;;;;;4927870;29;20043;-80
2022/05/01 11:22:24;;;;;;;11.45;8.48;;;20.50;70.70;;;;;;4926555;29;20044;-79
2022/05/01 11:24:50;;;;;;;14.38;9.20;;;20.30;70.20;;;;;;4925812;29;20032;-79
2022/05/01 11:27:18;;;;;;;11.73;8.65;;;20.00;71.30;;;;;;4927750;29;20260;-79
2022/05/01 11:30:06;;;;;;;11.38;9.10;;;20.00;71.90;;;;;;4911301;29;20028;-79
2022/05/01 11:32:46;;;;;;;12.70;9.50;;;20.20;70.50;;;;;;4887780;29;20091;-80
2022/05/01 11:35:13;;;;;;;11.60;8.13;;;20.10;71.50;;;;;;4908113;29;20037;-80
2022/05/01 11:38:00;;;;;;;11.90;7.80;;;20.30;72.20;;;;;;4926775;29;20086;-79
2022/05/01 11:40:28;;;;;;;9.82;7.68;;;20.20;68.00;;;;;;4907988;29;20024;-79
2022/05/01 11:43:17;;;;;;;9.80;7.38;;;20.10;72.80;;;;;;4907391;29;20060;-78
2022/05/01 11:45:45;;;;;;;10.98;7.38;;;21.00;70.90;;;;;;4907991;29;20274;-77
2022/05/01 11:48:18;;;;;;;10.80;8.17;;;21.30;69.00;;;;;;4909938;29;20029;-85
2022/05/01 11:50:48;;;;;;;11.82;8.57;;;22.00;66.70;;;;;;4925041;29;20035;-79
2022/05/01 11:53:24;;;;;;;11.68;8.75;;;22.10;66.90;;;;;;4909833;29;20107;-79
2022/05/01 12:04:26;;;;;;;12.35;9.20;;;20.80;69.90;;;;;;4921096;29;20131;-79
2022/05/01 12:07:01;;;;;;;11.98;8.27;;;20.50;69.40;;;;;;4924407;29;20076;-79
2022/05/01 12:09:29;;;;;;;11.30;8.50;;;20.40;70.60;;;;;;4906806;29;20344;-79
2022/05/01 12:12:16;;;;;;;12.73;8.40;;;20.40;71.20;;;;;;4908033;29;20076;-81
2022/05/01 12:14:48;;;;;;;12.52;8.75;;;20.50;71.70;;;;;;4891634;29;20037;-78
2022/05/01 12:17:21;;;;;;;11.27;7.85;;;20.30;70.50;;;;;;4889394;29;20218;-78
2022/05/01 12:20:48;;;;;;;10.05;7.78;;;20.40;72.60;;;;;;4892066;29;20055;-80
2022/05/01 12:23:32;;;;;;;10.52;7.95;;;21.70;67.90;;;;;;4872763;29;20051;-78
2022/05/01 12:26:07;;;;;;;11.88;7.93;;;22.10;67.90;;;;;;4856254;29;20041;-79
2022/05/01 12:29:23;;;;;;;10.13;8.30;;;23.30;68.70;;;;;;4856689;29;20323;-78
2022/05/01 12:33:03;;;;;;;10.52;7.38;;;24.30;63.50;;;;;;4851924;29;20064;-81
2022/05/01 12:35:52;;;;;;;9.98;8.10;;;24.90;62.10;;;;;;4762615;30;20063;-78
2022/05/01 12:39:04;;;;;;;8.98;7.25;;;23.90;61.50;;;;;;4762454;30;20039;-80
2022/05/01 12:45:07;;;;;;;9.00;7.40;;;23.40;62.70;;;;;;4785314;30;20359;-78
2022/05/01 12:47:34;;;;;;;9.07;7.93;;;24.90;61.10;;;;;;4795443;30;20054;-79
2022/05/01 12:50:04;;;;;;;10.13;8.80;;;26.20;58.40;;;;;;4795121;30;20054;-80
2022/05/01 12:52:35;;;;;;;9.25;7.57;;;26.50;56.90;;;;;;4795417;30;20239;-79
2022/05/01 12:55:21;;;;;;;7.53;6.57;;;26.40;58.40;;;;;;4794805;30;20296;-81
2022/05/01 12:57:51;;;;;;;9.18;6.95;;;26.80;56.40;;;;;;4790843;30;20399;-78
2022/05/01 13:00:35;;;;;;;6.93;6.03;;;28.70;55.10;;;;;;4776371;30;20043;-78
2022/05/01 13:03:24;;;;;;;7.20;6.20;;;30.60;53.60;;;;;;4776502;30;20067;-79
2022/05/01 13:06:27;;;;;;;5.75;4.95;;;30.50;53.30;;;;;;4777333;30;20040;-78
2022/05/01 13:09:09;;;;;;;9.90;6.20;;;29.60;52.80;;;;;;4861570;29;20136;-78
2022/05/01 13:11:57;;;;;;;9.05;7.10;;;28.60;53.10;;;;;;4890918;29;20452;-79
2022/05/01 13:14:32;;;;;;;6.20;5.57;;;27.90;52.90;;;;;;4906969;29;20318;-78
2022/05/01 13:17:12;;;;;;;8.18;6.22;;;29.20;53.60;;;;;;4905188;29;20064;-77
2022/05/01 13:19:44;;;;;;;7.32;6.60;;;30.20;50.70;;;;;;4907048;29;20028;-78
2022/05/01 13:22:10;;;;;;;7.25;6.15;;;31.00;49.40;;;;;;4906843;29;20036;-77
2022/05/01 13:24:39;;;;;;;7.57;5.93;;;32.60;48.70;;;;;;4907261;29;20052;-78
2022/05/01 13:27:09;;;;;;;6.30;5.70;;;34.40;48.40;;;;;;4906543;29;20044;-78
2022/05/01 13:29:40;;;;;;;6.80;6.10;;;35.50;46.60;;;;;;4907087;29;20382;-78
2022/05/01 13:32:08;;;;;;;7.05;6.00;;;34.40;46.50;;;;;;4889430;29;20048;-79
2022/05/01 13:34:36;;;;;;;6.03;5.47;;;32.00;48.30;;;;;;4890929;29;20073;-80
2022/05/01 13:37:05;;;;;;;7.40;5.10;;;32.50;47.80;;;;;;4890508;29;20029;-79
2022/05/01 13:45:00;;;;;;;9.02;6.35;;;32.40;48.30;;;;;;4905420;29;20076;-79
2022/05/01 13:47:27;;;;;;;7.13;6.25;;;31.20;49.40;;;;;;4880217;29;20041;-79
2022/05/01 13:50:00;;;;;;;7.15;6.22;;;30.80;48.90;;;;;;4890015;29;20108;-78
2022/05/01 13:52:26;;;;;;;8.48;6.65;;;29.70;50.60;;;;;;4890673;29;20024;-81
2022/05/01 13:54:52;;;;;;;7.50;6.18;;;28.70;51.40;;;;;;4890136;29;20028;-77
2022/05/01 13:57:21;;;;;;;6.93;5.70;;;27.50;53.50;;;;;;4889983;29;20115;-80
2022/05/01 13:59:48;;;;;;;7.72;6.70;;;26.80;53.30;;;;;;4906161;29;20132;-80
2022/05/01 14:02:14;;;;;;;8.43;6.80;;;25.90;54.50;;;;;;4905604;29;20052;-79
2022/05/01 14:04:40;;;;;;;8.02;6.60;;;25.80;55.60;;;;;;4928889;29;20052;-79
2022/05/01 14:07:06;;;;;;;8.35;6.68;;;27.00;56.30;;;;;;4934576;29;20043;-80
2022/05/01 14:09:32;;;;;;;8.48;7.53;;;27.80;55.60;;;;;;4922522;29;20032;-79
2022/05/01 14:11:58;;;;;;;9.18;7.25;;;26.90;55.00;;;;;;4922938;29;20032;-80
2022/05/01 14:14:25;;;;;;;10.15;8.35;;;26.30;57.70;;;;;;4914761;29;20047;-79
2022/05/01 14:16:51;;;;;;;9.27;7.43;;;27.70;55.00;;;;;;4911422;29;20111;-78
2022/05/01 14:19:28;;;;;;;7.85;6.82;;;29.50;53.70;;;;;;4909789;29;20057;-78
2022/05/01 14:21:57;;;;;;;6.97;5.45;;;30.70;52.30;;;;;;4909067;29;20052;-79
2022/05/01 14:24:23;;;;;;;6.97;5.38;;;32.80;51.10;;;;;;4909656;29;20199;-79
2022/05/01 14:26:49;;;;;;;6.85;5.88;;;32.90;50.50;;;;;;4910192;29;20032;-80
2022/05/01 14:29:15;;;;;;;7.75;6.57;;;33.40;48.70;;;;;;4910059;29;20080;-79
2022/05/01 14:31:49;;;;;;;9.25;7.00;;;33.40;48.50;;;;;;4909902;29;20052;-78
2022/05/01 14:34:45;;;;;;;7.38;6.35;;;33.40;48.20;;;;;;4908447;29;20333;-79
2022/05/01 14:37:26;;;;;;;8.15;7.30;;;33.60;48.00;;;;;;4909800;29;20080;-80
2022/05/01 14:39:56;;;;;;;6.53;5.78;;;34.20;47.40;;;;;;4909248;29;20036;-79
2022/05/01 14:42:30;;;;;;;6.90;6.20;;;35.20;46.70;;;;;;4909979;29;20021;-77
2022/05/01 14:45:02;;;;;;;6.22;5.13;;;35.20;46.30;;;;;;4914679;29;20056;-80
2022/05/01 14:47:31;;;;;;;6.57;5.78;;;35.80;47.20;;;;;;4909374;29;20435;-79
2022/05/01 14:50:01;;;;;;;7.55;6.10;;;35.60;45.60;;;;;;4909815;29;20214;-78
2022/05/01 14:52:30;;;;;;;6.82;5.60;;;36.20;45.00;;;;;;4908606;29;20107;-79
2022/05/01 14:54:57;;;;;;;7.10;5.68;;;35.50;46.60;;;;;;4910021;29;20033;-79
2022/05/01 14:57:24;;;;;;;6.15;5.55;;;35.90;44.90;;;;;;4909284;29;20040;-79
2022/05/01 15:08:24;;;;;;;5.53;4.82;;;34.80;44.70;;;;;;4909192;29;20114;-80
2022/05/01 15:10:50;;;;;;;9.00;6.50;;;32.30;47.50;;;;;;4909374;29;20055;-78
2022/05/01 15:13:17;;;;;;;8.35;6.50;;;30.60;50.20;;;;;;4923676;29;20298;-78
2022/05/01 15:15:51;;;;;;;5.82;4.95;;;30.40;50.20;;;;;;4923388;29;20075;-78
2022/05/01 15:18:21;;;;;;;6.97;6.05;;;29.80;53.30;;;;;;4907775;29;20040;-80
2022/05/01 15:21:08;;;;;;;8.05;6.90;;;28.50;52.00;;;;;;4909208;29;20092;-80
2022/05/01 15:23:47;;;;;;;10.25;7.75;;;28.20;52.90;;;;;;4908147;29;20029;-80
2022/05/01 15:26:24;;;;;;;9.30;6.47;;;28.00;53.20;;;;;;4908209;29;20318;-78
2022/05/01 15:28:53;;;;;;;6.90;6.15;;;28.30;53.70;;;;;;4924135;29;20048;-79
2022/05/01 15:31:21;;;;;;;9.07;5.38;;;29.40;54.20;;;;;;4906095;29;20040;-78
2022/05/01 15:33:53;;;;;;;6.38;5.50;;;30.50;51.80;;;;;;4908249;29;20034;-79
2022/05/01 15:36:29;;;;;;;10.52;6.28;;;31.30;51.00;;;;;;4907851;29;20230;-78
2022/05/01 15:39:03;;;;;;;9.30;6.47;;;31.40;49.50;;;;;;4908171;29;20032;-78
2022/05/01 15:41:57;;;;;;;8.00;6.32;;;31.50;49.20;;;;;;4892618;29;20072;-78
2022/05/01 15:44:25;;;;;;;6.70;5.90;;;29.80;50.50;;;;;;4892502;29;20032;-79
2022/05/01 15:47:03;;;;;;;8.63;6.55;;;29.60;53.30;;;;;;4924807;29;20091;-80
2022/05/01 15:55:07;;;;;;;6.57;4.95;;;32.90;48.10;;;;;;4926912;29;20109;-78
2022/05/01 15:57:34;;;;;;;6.55;4.93;;;33.10;49.00;;;;;;4911091;29;20035;-78
2022/05/01 16:00:11;;;;;;;5.93;4.90;;;34.40;47.30;;;;;;4911082;29;20016;-79
2022/05/01 16:02:40;;;;;;;5.80;4.78;;;35.20;46.40;;;;;;4925855;29;20342;-80
2022/05/01 16:05:08;;;;;;;7.23;4.80;;;35.50;45.30;;;;;;4926040;29;20040;-79
2022/05/01 16:07:49;;;;;;;;;;;35.30;45.90;;;;;;4927891;29;20032;-79
2022/05/01 16:10:38;;;;;;;5.47;4.97;;;35.80;46.00;;;;;;4926973;29;19907;-80
2022/05/01 16:13:13;;;;;;;6.47;5.30;;;36.00;45.30;;;;;;4927601;29;20020;-79
2022/05/01 16:15:52;;;;;;;6.20;5.60;;;36.40;45.00;;;;;;4909828;29;20179;-78
2022/05/01 16:18:28;;;;;;;;;;;35.90;45.00;;;;;;4927425;29;20344;-80
2022/05/01 16:20:59;;;;;;;6.22;4.97;;;35.70;44.90;;;;;;4926184;29;19907;-79
2022/05/01 16:23:41;;;;;;;5.65;4.80;;;35.40;45.50;;;;;;4910561;29;20205;-80
2022/05/01 16:26:15;;;;;;;6.82;5.53;;;35.20;46.10;;;;;;4909671;29;20028;-79
2022/05/01 16:28:54;;;;;;;6.50;5.22;;;35.00;44.90;;;;;;4927150;29;20100;-80
2022/05/01 16:31:27;;;;;;;5.22;4.63;;;34.80;45.40;;;;;;4926102;29;20047;-79
2022/05/01 16:34:08;;;;;;;5.32;4.82;;;35.10;45.90;;;;;;4925634;29;20047;-80
2022/05/01 16:36:37;;;;;;;6.05;5.18;;;35.00;45.30;;;;;;4927292;29;20060;-79
2022/05/01 16:39:08;;;;;;;6.25;5.20;;;34.40;45.30;;;;;;4927197;29;20040;-79
2022/05/01 16:41:36;;;;;;;7.68;5.13;;;34.10;45.90;;;;;;4910314;29;20032;-79
2022/05/01 16:44:05;;;;;;;6.65;5.68;;;34.20;46.30;;;;;;4906677;29;20070;-79
2022/05/01 16:46:34;;;;;;;6.63;4.85;;;34.20;46.30;;;;;;4908451;29;20044;-80
2022/05/01 16:49:00;;;;;;;;;;;34.10;45.80;;;;;;4925983;29;20043;-79
2022/05/01 16:51:39;;;;;;;6.82;5.28;;;33.70;46.80;;;;;;4925090;29;19906;-79
2022/05/01 16:54:09;;;;;;;6.60;4.88;;;32.60;47.10;;;;;;4910074;29;20075;-80
2022/05/01 16:56:36;;;;;;;8.13;5.10;;;30.80;48.20;;;;;;4925643;29;20059;-81
2022/05/01 16:59:09;;;;;;;6.90;5.10;;;29.40;49.80;;;;;;4926717;29;20028;-80
2022/05/01 17:01:42;;;;;;;7.45;5.80;;;28.20;51.70;;;;;;4924994;29;20040;-79
2022/05/01 17:04:09;;;;;;;5.97;5.38;;;26.80;52.80;;;;;;4926486;29;20036;-80
2022/05/01 17:07:01;;;;;;;9.40;5.50;;;25.80;54.90;;;;;;4926707;29;20051;-79
2022/05/01 17:10:00;;;;;;;6.82;5.38;;;24.80;57.70;;;;;;4907877;29;20564;-78
2022/05/01 17:12:50;;;;;;;7.25;5.78;;;24.00;57.50;;;;;;4939920;29;20024;-76
2022/05/01 17:15:18;;;;;;;10.68;6.35;;;23.20;59.00;;;;;;4923586;29;20262;-79
2022/05/01 17:18:08;;;;;;;7.47;5.70;;;22.90;60.30;;;;;;4924040;29;20134;-77
2022/05/01 17:20:39;;;;;;;7.95;5.82;;;22.50;61.50;;;;;;4924541;29;20028;-78
2022/05/01 17:23:11;;;;;;;7.35;5.68;;;22.20;61.60;;;;;;4920012;29;20025;-78
2022/05/01 17:25:47;;;;;;;8.30;6.03;;;21.90;62.00;;;;;;4913678;29;20043;-77
2022/05/01 17:28:15;;;;;;;8.75;5.65;;;21.50;62.20;;;;;;4922675;29;20043;-79
2022/05/01 17:31:08;;;;;;;7.72;5.82;;;21.50;64.40;;;;;;4890146;29;20124;-77
2022/05/01 17:33:39;;;;;;;9.00;6.60;;;21.20;63.50;;;;;;4924777;29;20028;-77
2022/05/01 17:36:07;;;;;;;8.75;6.30;;;21.00;64.30;;;;;;4926009;29;20047;-79
2022/05/01 17:38:35;;;;;;;9.93;6.70;;;21.30;63.80;;;;;;4908821;29;20100;-78
2022/05/01 17:41:03;;;;;;;12.25;6.50;;;21.40;63.70;;;;;;4911399;29;20043;-79
2022/05/01 17:43:33;;;;;;;9.53;6.43;;;21.40;63.70;;;;;;4906445;29;20029;-80
2022/05/01 17:46:16;;;;;;;8.35;5.55;;;21.40;64.20;;;;;;4909258;29;20065;-81
2022/05/01 17:48:46;;;;;;;9.93;6.20;;;21.20;65.00;;;;;;4909787;29;20068;-78
2022/05/01 17:51:17;;;;;;;8.60;6.22;;;21.10;64.90;;;;;;4910710;29;20053;-78
2022/05/01 17:53:46;;;;;;;8.48;7.15;;;20.80;65.30;;;;;;4894413;29;20031;-78
2022/05/01 17:56:12;;;;;;;9.20;6.75;;;20.30;67.30;;;;;;4908756;29;20368;-78
2022/05/01 17:58:39;;;;;;;8.35;6.40;;;20.00;67.90;;;;;;4929675;29;20344;-77
2022/05/01 18:01:36;;;;;;;10.45;7.10;;;19.80;68.90;;;;;;4929812;29;20316;-78
2022/05/01 18:11:12;;;;;;;11.50;7.38;;;18.80;72.60;;;;;;4918559;29;20292;-81
2022/05/01 18:14:16;;;;;;;9.77;7.53;;;18.50;73.70;;;;;;4912394;29;20370;-78
2022/05/01 18:17:07;;;;;;;10.77;7.20;;;18.40;74.80;;;;;;4927011;29;20052;-80
2022/05/01 18:19:51;;;;;;;11.35;7.95;;;18.20;75.20;;;;;;4895736;29;20035;-79
2022/05/01 18:23:30;;;;;;;11.75;7.65;;;17.90;75.00;;;;;;4895418;29;20285;-79
2022/05/01 18:26:54;;;;;;;10.75;7.60;;;17.80;76.00;;;;;;4911905;29;20036;-78
2022/05/01 18:33:27;;;;;;;8.18;5.75;;;17.50;77.50;;;;;;4916287;29;20140;-82
2022/05/01 18:36:35;;;;;;;10.18;6.72;;;17.30;78.50;;;;;;4895305;29;20040;-79
2022/05/01 18:39:04;;;;;;;13.20;9.18;;;17.20;79.10;;;;;;4926902;29;20055;-81
2022/05/01 18:41:32;;;;;;;13.55;9.27;;;17.00;79.90;;;;;;4927350;29;20042;-78
2022/05/01 18:44:24;;;;;;;11.65;8.60;;;16.70;80.60;;;;;;4910946;29;20040;-79
2022/05/01 18:46:54;;;;;;;11.75;8.38;;;16.60;81.60;;;;;;4910807;29;20037;-79
2022/05/01 18:49:22;;;;;;;15.00;11.38;;;16.40;82.50;;;;;;4879676;29;20029;-79
2022/05/01 18:51:52;;;;;;;12.82;9.80;;;16.30;83.20;;;;;;4891170;29;20032;-81
2022/05/01 18:54:34;;;;;;;12.38;7.97;;;16.20;83.60;;;;;;4890334;29;20029;-80
2022/05/01 18:57:03;;;;;;;9.57;7.40;;;16.10;84.10;;;;;;4886187;29;20356;-80
2022/05/01 18:59:57;;;;;;;8.68;6.78;;;16.00;85.00;;;;;;4870645;29;20196;-81
2022/05/01 19:02:25;;;;;;;10.38;6.90;;;16.00;85.30;;;;;;4882836;29;20162;-78
2022/05/01 19:04:55;;;;;;;9.45;6.25;;;15.90;85.10;;;;;;4917316;29;20318;-79
2022/05/01 19:08:09;;;;;;;7.78;5.90;;;16.00;85.40;;;;;;4910853;29;20047;-80
2022/05/01 19:11:01;;;;;;;8.65;6.10;;;16.10;84.60;;;;;;4870704;29;20044;-80
2022/05/01 19:13:57;;;;;;;7.40;6.30;;;16.00;84.50;;;;;;4923409;29;20040;-81